createdAt,value
2023-05-14T00:00:19.212Z,71.73
2023-05-14T00:01:47.267Z,71.73
2023-05-14T00:02:54.078Z,71.82
2023-05-14T00:04:00.471Z,71.62
2023-05-14T00:05:09.081Z,71.32
2023-05-14T00:06:15.745Z,71.62
2023-05-14T00:07:22.206Z,71.82
2023-05-14T00:08:29.276Z,71.29
2023-05-14T00:09:36.171Z,71.58
2023-05-14T00:10:42.706Z,71.66
2023-05-14T00:11:48.826Z,71.67
2023-05-14T00:12:55.752Z,71.64
2023-05-14T00:14:01.667Z,71.67
2023-05-14T00:15:11.222Z,71.71
2023-05-14T00:16:17.276Z,71.98
2023-05-14T00:17:24.327Z,72.08
2023-05-14T00:18:30.310Z,72.00
2023-05-14T00:19:36.529Z,72.10
2023-05-14T00:20:42.699Z,71.97
2023-05-14T00:21:50.175Z,72.24
2023-05-14T00:22:56.947Z,72.11
2023-05-14T00:24:03.294Z,72.12
2023-05-14T00:25:12.181Z,71.98
2023-05-14T00:26:16.810Z,71.91
2023-05-14T00:27:22.802Z,72.45
2023-05-14T00:28:28.865Z,72.61
2023-05-14T00:29:34.802Z,72.50
2023-05-14T00:30:41.047Z,72.53
2023-05-14T00:31:47.470Z,72.23
2023-05-14T00:32:53.906Z,72.28
2023-05-14T00:34:00.116Z,72.17
2023-05-14T00:35:08.113Z,72.53
2023-05-14T00:36:14.877Z,72.45
2023-05-14T00:37:21.543Z,72.97
2023-05-14T00:38:28.852Z,72.96
2023-05-14T00:39:36.255Z,73.20
2023-05-14T00:40:47.162Z,73.09
2023-05-14T00:41:53.102Z,72.73
2023-05-14T00:42:59.054Z,72.86
2023-05-14T00:44:07.064Z,73.08
2023-05-14T00:45:13.453Z,73.29
2023-05-14T00:46:22.035Z,73.37
2023-05-14T00:47:28.550Z,73.23
2023-05-14T00:48:35.986Z,73.43
2023-05-14T00:49:42.741Z,73.18
2023-05-14T00:50:49.600Z,73.23
2023-05-14T00:51:59.558Z,73.29
2023-05-14T00:53:10.909Z,73.45
2023-05-14T00:54:18.621Z,73.17
2023-05-14T00:55:25.549Z,73.25
2023-05-14T00:56:31.816Z,73.14
2023-05-14T00:57:39.125Z,72.76
2023-05-14T00:58:45.704Z,73.00
2023-05-14T00:59:51.736Z,72.89
2023-05-14T01:00:57.816Z,72.77
2023-05-14T01:02:04.585Z,72.56
2023-05-14T01:03:11.312Z,72.62
2023-05-14T01:04:18.053Z,72.65
2023-05-14T01:05:28.145Z,72.98
2023-05-14T01:06:45.146Z,72.99
2023-05-14T01:08:02.203Z,72.56
2023-05-14T01:09:16.882Z,72.52
2023-05-14T01:10:29.177Z,72.41
2023-05-14T01:11:42.903Z,72.27
2023-05-14T01:12:56.451Z,72.55
2023-05-14T01:14:12.430Z,72.37
2023-05-14T01:15:24.319Z,72.22
2023-05-14T01:16:33.734Z,72.13
2023-05-14T01:17:45.712Z,72.25
2023-05-14T01:18:53.102Z,72.41
2023-05-14T01:20:00.523Z,72.45
2023-05-14T01:21:18.316Z,72.81
2023-05-14T01:22:24.263Z,73.15
2023-05-14T01:23:30.495Z,72.71
2023-05-14T01:24:37.229Z,72.52
2023-05-14T01:25:43.638Z,72.37
2023-05-14T01:26:50.097Z,72.61
2023-05-14T01:28:06.324Z,72.51
2023-05-14T01:29:19.459Z,72.79
2023-05-14T01:30:33.145Z,72.67
2023-05-14T01:31:43.259Z,72.93
2023-05-14T01:32:52.188Z,73.02
2023-05-14T01:34:01.020Z,72.86
2023-05-14T01:35:09.777Z,73.03
2023-05-14T01:36:16.186Z,73.26
2023-05-14T01:37:23.756Z,73.13
2023-05-14T01:38:34.237Z,73.12
2023-05-14T01:39:42.626Z,73.09
2023-05-14T01:40:51.400Z,72.83
2023-05-14T01:41:57.828Z,73.03
2023-05-14T01:43:04.758Z,73.29
2023-05-14T01:44:11.688Z,73.34
2023-05-14T01:45:17.908Z,73.40
2023-05-14T01:46:25.607Z,73.48
2023-05-14T01:47:31.878Z,73.21
2023-05-14T01:48:38.109Z,73.54
2023-05-14T01:49:44.061Z,72.68
2023-05-14T01:50:50.813Z,72.76
2023-05-14T01:51:57.284Z,73.15
2023-05-14T01:53:03.533Z,73.38
2023-05-14T01:54:09.694Z,73.34
2023-05-14T01:55:16.148Z,73.66
2023-05-14T01:56:24.145Z,73.27
2023-05-14T01:57:29.864Z,73.11
2023-05-14T01:58:38.090Z,73.24
2023-05-14T01:59:46.501Z,73.32
2023-05-14T02:00:53.865Z,73.62
2023-05-14T02:02:00.032Z,73.64
2023-05-14T02:03:06.238Z,73.45
2023-05-14T02:04:12.469Z,73.34
2023-05-14T02:05:19.278Z,73.03
2023-05-14T02:06:25.545Z,73.61
2023-05-14T02:07:31.542Z,73.26
2023-05-14T02:08:38.160Z,73.48
2023-05-14T02:09:44.472Z,73.22
2023-05-14T02:10:50.578Z,73.27
2023-05-14T02:11:57.025Z,73.35
2023-05-14T02:13:03.891Z,73.87
2023-05-14T02:14:10.126Z,73.30
2023-05-14T02:15:15.983Z,73.59
2023-05-14T02:16:22.006Z,73.84
2023-05-14T02:17:27.895Z,73.67
2023-05-14T02:18:34.495Z,73.60
2023-05-14T02:19:40.917Z,73.65
2023-05-14T02:20:46.928Z,73.68
2023-05-14T02:21:53.856Z,73.11
2023-05-14T02:23:00.001Z,73.31
2023-05-14T02:24:06.615Z,73.45
2023-05-14T02:25:13.948Z,73.69
2023-05-14T02:26:19.957Z,73.72
2023-05-14T02:27:26.413Z,73.27
2023-05-14T02:28:32.840Z,73.27
2023-05-14T02:29:38.989Z,73.52
2023-05-14T02:30:45.155Z,73.57
2023-05-14T02:31:51.080Z,73.52
2023-05-14T02:32:57.620Z,73.83
2023-05-14T02:34:09.415Z,73.57
2023-05-14T02:35:15.560Z,73.62
2023-05-14T02:36:21.780Z,73.46
2023-05-14T02:37:27.938Z,73.84
2023-05-14T02:38:33.702Z,73.46
2023-05-14T02:39:39.904Z,73.43
2023-05-14T02:40:46.611Z,73.85
2023-05-14T02:41:52.343Z,73.60
2023-05-14T02:42:58.844Z,73.80
2023-05-14T02:44:06.523Z,73.95
2023-05-14T02:45:13.695Z,74.26
2023-05-14T02:46:19.645Z,73.70
2023-05-14T02:47:25.896Z,73.89
2023-05-14T02:48:32.386Z,73.97
2023-05-14T02:49:38.262Z,73.91
2023-05-14T02:50:44.659Z,73.74
2023-05-14T02:51:50.455Z,73.89
2023-05-14T02:52:56.566Z,73.93
2023-05-14T02:54:02.692Z,74.11
2023-05-14T02:55:11.818Z,73.73
2023-05-14T02:56:17.152Z,73.88
2023-05-14T02:57:23.092Z,73.62
2023-05-14T02:58:29.247Z,73.82
2023-05-14T02:59:36.574Z,73.53
2023-05-14T03:00:43.089Z,73.45
2023-05-14T03:01:51.254Z,73.25
2023-05-14T03:02:58.178Z,73.07
2023-05-14T03:04:05.780Z,73.44
2023-05-14T03:05:12.935Z,73.47
2023-05-14T03:06:19.250Z,72.94
2023-05-14T03:07:25.541Z,73.17
2023-05-14T03:08:32.121Z,73.13
2023-05-14T03:09:38.434Z,73.12
2023-05-14T03:10:44.504Z,72.85
2023-05-14T03:11:50.555Z,73.15
2023-05-14T03:13:01.069Z,72.66
2023-05-14T03:14:06.805Z,72.89
2023-05-14T03:15:13.822Z,72.96
2023-05-14T03:16:19.820Z,72.59
2023-05-14T03:17:25.988Z,72.80
2023-05-14T03:18:34.151Z,72.74
2023-05-14T03:19:39.871Z,72.75
2023-05-14T03:20:45.834Z,72.52
2023-05-14T03:21:53.927Z,72.68
2023-05-14T03:22:59.973Z,72.69
2023-05-14T03:24:08.388Z,72.69
2023-05-14T03:25:14.357Z,72.75
2023-05-14T03:26:21.727Z,72.43
2023-05-14T03:27:28.295Z,72.45
2023-05-14T03:28:34.336Z,72.31
2023-05-14T03:29:40.570Z,72.26
2023-05-14T03:30:47.070Z,71.86
2023-05-14T03:31:54.652Z,72.02
2023-05-14T03:33:01.050Z,72.24
2023-05-14T03:34:07.044Z,72.21
2023-05-14T03:35:13.106Z,72.13
2023-05-14T03:36:19.396Z,72.06
2023-05-14T03:37:25.724Z,71.88
2023-05-14T03:38:31.649Z,71.99
2023-05-14T03:39:38.166Z,71.50
2023-05-14T03:40:44.788Z,71.62
2023-05-14T03:41:50.688Z,71.28
2023-05-14T03:42:57.162Z,71.59
2023-05-14T03:44:03.247Z,71.44
2023-05-14T03:45:11.801Z,71.06
2023-05-14T03:46:17.800Z,71.16
2023-05-14T03:47:24.358Z,71.13
2023-05-14T03:48:31.163Z,70.93
2023-05-14T03:49:37.201Z,70.70
2023-05-14T03:50:43.017Z,70.62
2023-05-14T03:51:49.050Z,70.71
2023-05-14T03:52:55.538Z,70.57
2023-05-14T03:54:01.965Z,70.73
2023-05-14T03:55:11.706Z,70.26
2023-05-14T03:56:17.666Z,70.42
2023-05-14T03:57:23.745Z,70.02
2023-05-14T03:58:29.888Z,69.98
2023-05-14T03:59:35.963Z,69.72
2023-05-14T04:00:43.271Z,69.80
2023-05-14T04:01:49.552Z,69.75
2023-05-14T04:02:55.788Z,69.77
2023-05-14T04:04:02.224Z,69.60
2023-05-14T04:05:11.088Z,69.23
2023-05-14T04:06:18.771Z,69.39
2023-05-14T04:07:24.932Z,69.15
2023-05-14T04:08:31.357Z,68.81
2023-05-14T04:09:37.948Z,68.63
2023-05-14T04:10:44.167Z,68.42
2023-05-14T04:11:50.593Z,68.30
2023-05-14T04:12:56.696Z,68.01
2023-05-14T04:14:03.073Z,67.99
2023-05-14T04:15:11.496Z,68.10
2023-05-14T04:16:19.620Z,67.69
2023-05-14T04:17:26.285Z,67.70
2023-05-14T04:18:35.687Z,67.60
2023-05-14T04:19:41.808Z,67.47
2023-05-14T04:20:48.372Z,67.18
2023-05-14T04:21:57.504Z,66.91
2023-05-14T04:23:03.664Z,66.81
2023-05-14T04:24:11.942Z,66.99
2023-05-14T04:25:19.194Z,66.82
2023-05-14T04:26:25.272Z,66.87
2023-05-14T04:27:33.387Z,66.88
2023-05-14T04:28:39.092Z,66.98
2023-05-14T04:29:46.142Z,66.55
2023-05-14T04:30:52.635Z,66.50
2023-05-14T04:31:58.694Z,66.48
2023-05-14T04:33:07.094Z,66.72
2023-05-14T04:34:14.890Z,66.46
2023-05-14T04:35:24.138Z,66.34
2023-05-14T04:36:31.818Z,66.33
2023-05-14T04:37:39.103Z,66.83
2023-05-14T04:38:45.907Z,65.81
2023-05-14T04:39:52.077Z,65.99
2023-05-14T04:40:58.380Z,66.01
2023-05-14T04:42:05.336Z,65.56
2023-05-14T04:43:11.384Z,64.60
2023-05-14T04:44:17.323Z,64.12
2023-05-14T04:45:23.124Z,64.09
2023-05-14T04:46:29.727Z,63.79
2023-05-14T04:47:36.532Z,64.47
2023-05-14T04:48:42.488Z,64.00
2023-05-14T04:49:48.716Z,63.72
2023-05-14T04:50:55.169Z,64.22
2023-05-14T04:52:01.334Z,64.08
2023-05-14T04:53:07.997Z,63.31
2023-05-14T04:54:14.383Z,63.09
2023-05-14T04:55:21.463Z,63.21
2023-05-14T04:56:27.644Z,62.83
2023-05-14T04:57:34.131Z,62.70
2023-05-14T04:58:41.867Z,62.64
2023-05-14T04:59:48.046Z,63.43
2023-05-14T05:00:54.881Z,63.46
2023-05-14T05:02:01.515Z,62.96
2023-05-14T05:03:07.944Z,63.22
2023-05-14T05:04:14.368Z,62.02
2023-05-14T05:05:21.219Z,61.65
2023-05-14T05:06:28.399Z,61.45
2023-05-14T05:07:34.726Z,61.49
2023-05-14T05:08:41.602Z,60.47
2023-05-14T05:09:48.063Z,59.57
2023-05-14T05:10:54.664Z,59.37
2023-05-14T05:12:01.791Z,59.43
2023-05-14T05:13:07.527Z,58.29
2023-05-14T05:14:14.318Z,58.16
2023-05-14T05:15:20.781Z,58.37
2023-05-14T05:16:27.463Z,58.79
2023-05-14T05:17:34.413Z,58.28
2023-05-14T05:18:40.468Z,58.48
2023-05-14T05:19:47.227Z,58.92
2023-05-14T05:20:53.885Z,58.18
2023-05-14T05:22:00.372Z,58.22
2023-05-14T05:23:06.435Z,58.37
2023-05-14T05:24:13.707Z,58.23
2023-05-14T05:25:19.857Z,58.49
2023-05-14T05:26:27.164Z,58.62
2023-05-14T05:27:33.875Z,58.94
2023-05-14T05:28:43.116Z,59.09
2023-05-14T05:29:49.210Z,58.44
2023-05-14T05:30:55.822Z,58.80
2023-05-14T05:32:02.484Z,59.09
2023-05-14T05:33:08.444Z,58.77
2023-05-14T05:34:15.697Z,58.55
2023-05-14T05:35:21.758Z,58.66
2023-05-14T05:36:29.134Z,58.36
2023-05-14T05:37:35.121Z,58.39
2023-05-14T05:38:42.296Z,58.06
2023-05-14T05:39:48.859Z,58.69
2023-05-14T05:40:55.477Z,59.08
2023-05-14T05:42:02.567Z,59.06
2023-05-14T05:43:08.491Z,58.65
2023-05-14T05:44:15.092Z,57.57
2023-05-14T05:45:21.043Z,57.11
2023-05-14T05:46:27.112Z,57.15
2023-05-14T05:47:33.312Z,56.52
2023-05-14T05:48:39.428Z,56.40
2023-05-14T05:49:45.774Z,56.28
2023-05-14T05:50:52.099Z,56.38
2023-05-14T05:51:58.134Z,56.68
2023-05-14T05:53:04.307Z,56.09
2023-05-14T05:54:11.047Z,55.89
2023-05-14T05:55:17.703Z,55.43
2023-05-14T05:56:23.929Z,55.66
2023-05-14T05:57:30.118Z,56.10
2023-05-14T05:58:37.246Z,55.88
2023-05-14T05:59:43.007Z,54.91
2023-05-14T06:00:49.126Z,54.28
2023-05-14T06:01:55.557Z,54.34
2023-05-14T06:03:03.596Z,54.80
2023-05-14T06:04:09.909Z,54.38
2023-05-14T06:05:15.644Z,54.46
2023-05-14T06:06:22.073Z,54.74
2023-05-14T06:07:28.378Z,54.68
2023-05-14T06:08:34.824Z,55.11
2023-05-14T06:09:40.877Z,55.43
2023-05-14T06:10:47.682Z,55.38
2023-05-14T06:11:55.338Z,54.81
2023-05-14T06:13:01.885Z,54.96
2023-05-14T06:14:08.501Z,55.54
2023-05-14T06:15:15.102Z,55.47
2023-05-14T06:16:21.094Z,55.02
2023-05-14T06:17:28.545Z,54.83
2023-05-14T06:18:34.895Z,54.69
2023-05-14T06:19:41.569Z,54.89
2023-05-14T06:20:48.557Z,55.22
2023-05-14T06:21:54.501Z,54.94
2023-05-14T06:23:01.167Z,54.94
2023-05-14T06:24:10.494Z,54.92
2023-05-14T06:25:17.029Z,54.96
2023-05-14T06:26:23.616Z,55.19
2023-05-14T06:27:29.952Z,55.21
2023-05-14T06:28:36.153Z,55.30
2023-05-14T06:29:42.788Z,54.86
2023-05-14T06:30:52.020Z,54.53
2023-05-14T06:32:01.378Z,54.25
2023-05-14T06:33:07.640Z,54.34
2023-05-14T06:34:13.952Z,54.37
2023-05-14T06:35:20.201Z,54.32
2023-05-14T06:36:26.217Z,54.18
2023-05-14T06:37:31.953Z,53.76
2023-05-14T06:38:38.048Z,54.00
2023-05-14T06:39:50.374Z,53.81
2023-05-14T06:40:56.797Z,52.69
2023-05-14T06:42:02.850Z,52.67
2023-05-14T06:43:09.614Z,52.81
2023-05-14T06:44:16.351Z,53.16
2023-05-14T06:45:22.604Z,52.78
2023-05-14T06:46:28.984Z,52.97
2023-05-14T06:47:35.626Z,52.96
2023-05-14T06:48:42.345Z,51.85
2023-05-14T06:49:48.799Z,51.72
2023-05-14T06:50:55.446Z,51.16
2023-05-14T06:52:02.103Z,50.82
2023-05-14T06:53:08.059Z,50.39
2023-05-14T06:54:14.409Z,50.37
2023-05-14T06:55:21.774Z,49.99
2023-05-14T06:56:27.636Z,49.38
2023-05-14T06:57:34.716Z,49.43
2023-05-14T06:58:40.544Z,49.30
2023-05-14T06:59:47.103Z,49.28
2023-05-14T07:00:53.798Z,49.42
2023-05-14T07:02:01.364Z,48.99
2023-05-14T07:03:08.522Z,49.24
2023-05-14T07:04:15.093Z,49.11
2023-05-14T07:05:21.476Z,48.08
2023-05-14T07:06:27.359Z,47.61
2023-05-14T07:07:33.419Z,48.54
2023-05-14T07:08:40.780Z,48.16
2023-05-14T07:09:46.549Z,47.77
2023-05-14T07:10:53.121Z,48.15
2023-05-14T07:11:59.222Z,48.48
2023-05-14T07:13:05.869Z,48.37
2023-05-14T07:14:15.260Z,48.44
2023-05-14T07:15:21.878Z,48.18
2023-05-14T07:16:28.759Z,48.05
2023-05-14T07:17:35.205Z,47.46
2023-05-14T07:18:41.296Z,46.67
2023-05-14T07:19:47.505Z,46.18
2023-05-14T07:20:53.654Z,46.52
2023-05-14T07:22:01.133Z,46.32
2023-05-14T07:23:07.197Z,46.42
2023-05-14T07:24:13.400Z,44.65
2023-05-14T07:25:19.915Z,43.39
2023-05-14T07:26:26.640Z,43.66
2023-05-14T07:27:32.734Z,44.38
2023-05-14T07:28:38.743Z,44.84
2023-05-14T07:29:44.738Z,44.68
2023-05-14T07:30:51.908Z,43.74
2023-05-14T07:31:58.354Z,43.57
2023-05-14T07:33:04.629Z,42.27
2023-05-14T07:34:11.657Z,41.79
2023-05-14T07:35:18.213Z,42.21
2023-05-14T07:36:24.125Z,41.36
2023-05-14T07:37:30.619Z,41.48
2023-05-14T07:38:37.001Z,41.32
2023-05-14T07:39:43.258Z,40.89
2023-05-14T07:40:49.345Z,41.10
2023-05-14T07:41:55.886Z,41.22
2023-05-14T07:43:02.542Z,41.62
2023-05-14T07:44:08.584Z,40.49
2023-05-14T07:45:14.438Z,39.69
2023-05-14T07:46:21.104Z,39.76
2023-05-14T07:47:27.261Z,39.78
2023-05-14T07:48:33.575Z,39.97
2023-05-14T07:49:39.974Z,39.66
2023-05-14T07:50:46.444Z,39.28
2023-05-14T07:51:52.179Z,39.89
2023-05-14T07:52:58.624Z,39.56
2023-05-14T07:54:05.775Z,38.26
2023-05-14T07:55:14.746Z,38.91
2023-05-14T07:56:21.448Z,38.61
2023-05-14T07:57:27.425Z,37.72
2023-05-14T07:58:35.305Z,37.87
2023-05-14T07:59:41.800Z,37.11
2023-05-14T08:00:47.886Z,36.85
2023-05-14T08:01:53.603Z,36.91
2023-05-14T08:03:00.082Z,37.07
2023-05-14T08:04:06.921Z,36.60
2023-05-14T08:05:12.949Z,36.08
2023-05-14T08:06:21.264Z,34.97
2023-05-14T08:07:29.284Z,34.34
2023-05-14T08:08:36.241Z,34.79
2023-05-14T08:09:42.555Z,35.11
2023-05-14T08:10:49.243Z,34.34
2023-05-14T08:11:55.175Z,34.72
2023-05-14T08:13:01.359Z,33.76
2023-05-14T08:14:08.257Z,33.23
2023-05-14T08:15:14.255Z,33.18
2023-05-14T08:16:21.543Z,32.31
2023-05-14T08:17:29.176Z,32.39
2023-05-14T08:18:34.986Z,32.80
2023-05-14T08:19:41.331Z,32.96
2023-05-14T08:20:48.633Z,33.19
2023-05-14T08:21:55.082Z,33.66
2023-05-14T08:23:01.876Z,33.60
2023-05-14T08:24:09.612Z,32.83
2023-05-14T08:25:15.885Z,33.14
2023-05-14T08:26:21.952Z,33.56
2023-05-14T08:27:29.269Z,34.03
2023-05-14T08:28:35.601Z,33.93
2023-05-14T08:29:41.635Z,32.83
2023-05-14T08:30:47.925Z,32.26
2023-05-14T08:31:53.780Z,32.75
2023-05-14T08:33:00.560Z,32.47
2023-05-14T08:34:06.782Z,31.34
2023-05-14T08:35:13.961Z,31.79
2023-05-14T08:36:20.187Z,31.98
2023-05-14T08:37:26.691Z,32.17
2023-05-14T08:38:33.112Z,32.75
2023-05-14T08:39:39.297Z,32.42
2023-05-14T08:40:59.024Z,31.02
2023-05-14T08:42:10.812Z,30.68
2023-05-14T08:43:26.069Z,30.72
2023-05-14T08:44:40.820Z,31.43
2023-05-14T08:45:50.037Z,30.81
2023-05-14T08:46:57.862Z,29.86
2023-05-14T08:48:09.496Z,30.08
2023-05-14T08:49:30.394Z,30.43
2023-05-14T08:50:36.989Z,30.92
2023-05-14T08:51:44.349Z,31.47
2023-05-14T08:52:51.217Z,30.77
2023-05-14T08:54:03.809Z,30.88
2023-05-14T08:55:15.589Z,29.74
2023-05-14T08:56:21.973Z,30.52
2023-05-14T08:57:28.723Z,30.50
2023-05-14T08:58:34.979Z,30.21
2023-05-14T08:59:41.889Z,29.83
2023-05-14T09:00:47.824Z,29.95
2023-05-14T09:01:57.864Z,29.71
2023-05-14T09:03:06.732Z,29.44
2023-05-14T09:04:15.568Z,29.48
2023-05-14T09:05:24.824Z,29.43
2023-05-14T09:06:30.127Z,29.34
2023-05-14T09:07:36.295Z,28.96
2023-05-14T09:08:42.955Z,28.62
2023-05-14T09:09:49.412Z,29.10
2023-05-14T09:10:55.364Z,28.45
2023-05-14T09:12:04.476Z,28.13
2023-05-14T09:13:10.870Z,27.96
2023-05-14T09:14:17.290Z,27.77
2023-05-14T09:15:25.922Z,27.78
2023-05-14T09:16:32.806Z,27.83
2023-05-14T09:17:39.370Z,27.45
2023-05-14T09:18:47.844Z,27.25
2023-05-14T09:19:54.472Z,27.37
2023-05-14T09:21:02.221Z,26.82
2023-05-14T09:22:11.501Z,26.96
2023-05-14T09:23:18.226Z,26.55
2023-05-14T09:24:25.978Z,26.86
2023-05-14T09:25:34.137Z,26.99
2023-05-14T09:26:40.536Z,27.15
2023-05-14T09:27:51.273Z,27.06
2023-05-14T09:28:57.810Z,26.88
2023-05-14T09:30:13.433Z,26.72
2023-05-14T09:31:19.764Z,26.79
2023-05-14T09:32:25.971Z,27.06
2023-05-14T09:33:33.154Z,27.25
2023-05-14T09:34:39.972Z,26.24
2023-05-14T09:35:47.076Z,26.33
2023-05-14T09:36:58.004Z,26.69
2023-05-14T09:38:04.293Z,26.69
2023-05-14T09:39:10.496Z,26.79
2023-05-14T09:40:20.936Z,26.65
2023-05-14T09:41:26.810Z,27.00
2023-05-14T09:42:34.239Z,26.78
2023-05-14T09:43:39.952Z,26.56
2023-05-14T09:44:53.729Z,26.41
2023-05-14T09:45:59.482Z,26.76
2023-05-14T09:47:06.349Z,26.92
2023-05-14T09:48:13.615Z,26.84
2023-05-14T09:49:21.361Z,26.60
2023-05-14T09:50:27.552Z,25.95
2023-05-14T09:51:34.318Z,26.18
2023-05-14T09:52:42.635Z,25.74
2023-05-14T09:53:49.069Z,25.71
2023-05-14T09:54:55.491Z,25.71
2023-05-14T09:56:03.724Z,25.06
2023-05-14T09:57:09.507Z,25.86
2023-05-14T09:58:15.640Z,25.73
2023-05-14T09:59:22.408Z,26.11
2023-05-14T10:00:29.543Z,25.69
2023-05-14T10:01:36.573Z,25.23
2023-05-14T10:02:48.871Z,25.63
2023-05-14T10:03:56.452Z,25.64
2023-05-14T10:05:06.631Z,25.43
2023-05-14T10:06:17.835Z,25.39
2023-05-14T10:07:30.555Z,25.59
2023-05-14T10:08:41.602Z,25.51
2023-05-14T10:09:48.299Z,25.27
2023-05-14T10:10:56.254Z,25.74
2023-05-14T10:12:04.641Z,25.42
2023-05-14T10:13:15.565Z,25.07
2023-05-14T10:14:29.823Z,25.11
2023-05-14T10:15:42.174Z,25.10
2023-05-14T10:16:51.715Z,25.39
2023-05-14T10:18:01.837Z,25.46
2023-05-14T10:19:13.186Z,25.18
2023-05-14T10:20:19.818Z,24.88
2023-05-14T10:21:28.394Z,25.12
2023-05-14T10:22:36.379Z,24.96
2023-05-14T10:23:42.842Z,24.88
2023-05-14T10:24:53.614Z,25.01
2023-05-14T10:26:00.926Z,24.86
2023-05-14T10:27:08.682Z,24.41
2023-05-14T10:28:15.133Z,24.81
2023-05-14T10:29:31.513Z,24.69
2023-05-14T10:30:41.776Z,24.53
2023-05-14T10:31:55.630Z,24.56
2023-05-14T10:33:13.461Z,24.31
2023-05-14T10:34:48.565Z,24.42
2023-05-14T10:36:04.198Z,23.82
2023-05-14T10:37:12.486Z,24.12
2023-05-14T10:38:22.408Z,23.97
2023-05-14T10:39:43.092Z,24.13
2023-05-14T10:40:50.695Z,23.42
2023-05-14T10:42:00.516Z,23.50
2023-05-14T10:43:08.896Z,23.42
2023-05-14T10:44:16.393Z,23.71
2023-05-14T10:45:25.271Z,23.61
2023-05-14T10:46:32.142Z,23.67
2023-05-14T10:47:40.407Z,23.47
2023-05-14T10:48:48.692Z,23.36
2023-05-14T10:49:59.147Z,23.36
2023-05-14T10:51:07.629Z,23.24
2023-05-14T10:52:16.125Z,23.30
2023-05-14T10:53:30.546Z,23.37
2023-05-14T10:54:38.817Z,23.39
2023-05-14T10:55:46.373Z,23.24
2023-05-14T10:56:58.485Z,23.37
2023-05-14T10:58:06.475Z,23.14
2023-05-14T10:59:12.424Z,22.98
2023-05-14T11:00:21.139Z,22.68
2023-05-14T11:01:30.131Z,22.95
2023-05-14T11:02:39.508Z,22.75
2023-05-14T11:03:46.911Z,22.58
2023-05-14T11:05:06.246Z,22.52
2023-05-14T11:06:13.489Z,22.58
2023-05-14T11:07:23.947Z,22.58
2023-05-14T11:08:31.560Z,22.71
2023-05-14T11:09:40.187Z,22.81
2023-05-14T11:10:47.572Z,23.06
2023-05-14T11:11:54.577Z,23.01
2023-05-14T11:13:02.919Z,23.05
2023-05-14T11:14:10.238Z,23.33
2023-05-14T11:15:25.077Z,22.77
2023-05-14T11:16:35.457Z,22.83
2023-05-14T11:17:44.853Z,23.22
2023-05-14T11:19:01.941Z,23.18
2023-05-14T11:20:12.431Z,22.91
2023-05-14T11:21:21.132Z,23.06
2023-05-14T11:22:28.312Z,22.94
2023-05-14T11:23:35.704Z,22.73
2023-05-14T11:24:41.751Z,22.65
2023-05-14T11:25:49.006Z,22.62
2023-05-14T11:26:56.586Z,22.97
2023-05-14T11:28:03.118Z,23.32
2023-05-14T11:29:10.120Z,23.12
2023-05-14T11:30:20.466Z,23.38
2023-05-14T11:31:28.287Z,23.30
2023-05-14T11:32:37.113Z,23.44
2023-05-14T11:33:44.191Z,23.32
2023-05-14T11:34:51.913Z,23.40
2023-05-14T11:35:57.806Z,23.38
2023-05-14T11:37:08.498Z,23.75
2023-05-14T11:38:19.315Z,23.75
2023-05-14T11:39:25.220Z,23.54
2023-05-14T11:40:31.504Z,23.52
2023-05-14T11:41:43.686Z,23.65
2023-05-14T11:42:54.067Z,23.62
2023-05-14T11:44:00.824Z,23.90
2023-05-14T11:45:11.248Z,23.80
2023-05-14T11:46:22.098Z,23.77
2023-05-14T11:47:32.440Z,23.74
2023-05-14T11:48:38.984Z,24.06
2023-05-14T11:49:45.533Z,23.87
2023-05-14T11:50:53.319Z,23.90
2023-05-14T11:52:05.899Z,23.77
2023-05-14T11:53:17.185Z,23.90
2023-05-14T11:54:26.002Z,24.04
2023-05-14T11:55:34.419Z,24.22
2023-05-14T11:56:40.810Z,24.26
2023-05-14T11:57:46.714Z,24.12
2023-05-14T11:58:59.012Z,24.19
2023-05-14T12:00:21.394Z,24.59
2023-05-14T12:01:28.853Z,24.38
2023-05-14T12:02:36.453Z,24.19
2023-05-14T12:03:43.091Z,24.38
2023-05-14T12:04:53.749Z,24.51
2023-05-14T12:06:06.962Z,24.93
2023-05-14T12:07:15.455Z,24.60
2023-05-14T12:08:28.594Z,24.80
2023-05-14T12:09:44.266Z,24.59
2023-05-14T12:10:52.648Z,24.78
2023-05-14T12:12:07.745Z,24.93
2023-05-14T12:13:17.917Z,24.82
2023-05-14T12:14:24.910Z,24.85
2023-05-14T12:15:34.580Z,24.75
2023-05-14T12:16:42.717Z,25.25
2023-05-14T12:17:53.196Z,25.36
2023-05-14T12:19:02.614Z,25.44
2023-05-14T12:20:12.489Z,25.63
2023-05-14T12:21:19.260Z,25.93
2023-05-14T12:22:25.358Z,25.46
2023-05-14T12:23:32.484Z,25.53
2023-05-14T12:24:40.459Z,25.64
2023-05-14T12:25:52.994Z,25.78
2023-05-14T12:27:03.654Z,25.90
2023-05-14T12:28:18.027Z,26.15
2023-05-14T12:29:26.485Z,26.20
2023-05-14T12:30:43.204Z,26.34
2023-05-14T12:31:50.547Z,26.75
2023-05-14T12:32:57.935Z,26.77
2023-05-14T12:34:04.832Z,26.56
2023-05-14T12:35:11.997Z,26.77
2023-05-14T12:36:21.858Z,26.88
2023-05-14T12:37:30.076Z,27.08
2023-05-14T12:38:37.010Z,27.61
2023-05-14T12:39:43.149Z,27.37
2023-05-14T12:40:49.424Z,27.23
2023-05-14T12:41:55.982Z,27.23
2023-05-14T12:43:01.825Z,27.11
2023-05-14T12:44:07.875Z,27.24
2023-05-14T12:45:14.713Z,27.25
2023-05-14T12:46:21.585Z,27.42
2023-05-14T12:47:28.889Z,27.18
2023-05-14T12:48:34.326Z,26.91
2023-05-14T12:49:40.379Z,26.65
2023-05-14T12:50:46.744Z,26.35
2023-05-14T12:52:07.628Z,26.74
2023-05-14T12:53:18.202Z,26.40
2023-05-14T12:54:24.450Z,26.25
2023-05-14T12:55:30.526Z,26.46
2023-05-14T12:56:38.158Z,26.58
2023-05-14T12:57:44.725Z,26.50
2023-05-14T12:58:50.796Z,26.81
2023-05-14T12:59:57.809Z,27.19
2023-05-14T13:01:04.554Z,26.83
2023-05-14T13:02:10.998Z,26.85
2023-05-14T13:03:17.399Z,26.86
2023-05-14T13:04:23.650Z,26.71
2023-05-14T13:05:29.865Z,27.00
2023-05-14T13:06:36.738Z,26.47
2023-05-14T13:07:42.813Z,26.75
2023-05-14T13:08:48.922Z,26.68
2023-05-14T13:09:54.924Z,26.73
2023-05-14T13:11:00.777Z,26.65
2023-05-14T13:12:09.471Z,26.73
2023-05-14T13:13:16.926Z,26.48
2023-05-14T13:14:22.995Z,26.86
2023-05-14T13:15:31.861Z,26.85
2023-05-14T13:16:38.071Z,26.83
2023-05-14T13:17:44.521Z,26.70
2023-05-14T13:18:50.638Z,26.63
2023-05-14T13:19:56.710Z,26.54
2023-05-14T13:21:06.463Z,26.24
2023-05-14T13:22:12.657Z,26.09
2023-05-14T13:23:18.815Z,25.87
2023-05-14T13:24:25.661Z,25.45
2023-05-14T13:25:32.080Z,25.32
2023-05-14T13:26:38.836Z,25.10
2023-05-14T13:27:45.199Z,24.44
2023-05-14T13:28:51.342Z,24.59
2023-05-14T13:29:57.308Z,24.49
2023-05-14T13:31:09.138Z,24.18
2023-05-14T13:32:15.571Z,23.93
2023-05-14T13:33:21.812Z,23.95
2023-05-14T13:34:27.773Z,24.35
2023-05-14T13:35:35.335Z,24.25
2023-05-14T13:36:42.633Z,24.06
2023-05-14T13:37:49.277Z,23.86
2023-05-14T13:38:55.715Z,23.88
2023-05-14T13:40:04.773Z,23.69
2023-05-14T13:41:11.415Z,24.15
2023-05-14T13:42:17.469Z,24.07
2023-05-14T13:43:24.121Z,24.09
2023-05-14T13:44:30.346Z,24.31
2023-05-14T13:45:36.539Z,24.27
2023-05-14T13:46:45.030Z,24.16
2023-05-14T13:47:51.829Z,24.25
2023-05-14T13:48:58.306Z,24.52
2023-05-14T13:50:05.790Z,24.47
2023-05-14T13:51:11.700Z,24.69
2023-05-14T13:52:17.873Z,24.42
2023-05-14T13:53:25.110Z,24.23
2023-05-14T13:54:31.339Z,24.34
2023-05-14T13:55:37.654Z,24.27
2023-05-14T13:56:43.753Z,24.36
2023-05-14T13:57:49.545Z,24.54
2023-05-14T13:58:56.023Z,24.49
2023-05-14T14:00:02.563Z,24.83
2023-05-14T14:01:08.912Z,24.95
2023-05-14T14:02:15.705Z,24.78
2023-05-14T14:03:22.882Z,24.94
2023-05-14T14:04:29.338Z,25.13
2023-05-14T14:05:36.257Z,25.12
2023-05-14T14:06:42.843Z,25.34
2023-05-14T14:07:50.521Z,25.54
2023-05-14T14:08:59.576Z,26.03
2023-05-14T14:10:08.923Z,26.04
2023-05-14T14:11:15.084Z,26.00
2023-05-14T14:12:21.343Z,26.27
2023-05-14T14:13:29.502Z,26.59
2023-05-14T14:14:35.964Z,27.18
2023-05-14T14:15:43.384Z,26.89
2023-05-14T14:16:49.390Z,26.61
2023-05-14T14:17:56.359Z,26.87
2023-05-14T14:19:02.944Z,26.80
2023-05-14T14:20:12.281Z,27.03
2023-05-14T14:21:21.733Z,26.88
2023-05-14T14:22:29.114Z,27.22
2023-05-14T14:23:36.598Z,27.22
2023-05-14T14:24:42.557Z,27.42
2023-05-14T14:25:49.172Z,27.99
2023-05-14T14:26:55.324Z,27.97
2023-05-14T14:28:01.604Z,27.77
2023-05-14T14:29:07.699Z,27.99
2023-05-14T14:30:18.045Z,27.86